Vetal, South Dakota
Current Conditions -  °F | °C
As of 4:52 AM on Sunday 23 Nov 2014 (Local Time) from KIEN Reporting Station
Clear Clear  
Wind Chill: 26°   Ceiling: Unl
Heat Index: 32°   Visibility: 10mi
Dew Point: 27°   Wind: 7mph
Humidity: 82%   Direction: 310°NW
Pressure: 29.65"   Gusts: NA
Location:  43.2013°N, 101.679°W
Report Text: KIEN 231152Z AUTO 31006KT 10SM CLR 00/M03 A2965 RMK AO2 SLP055 60000 T00001028 10056 20000 51013
Loading
Personal Weather Stations






























Interactive Weather Map New forecast layout! Learn more

10-Day Weather Forecast

Advertisements
Track Severe Weather on mobile